createdAt,value
2023-04-05T00:29:47.632Z,100452.25
2023-04-05T00:30:29.527Z,100383.66
2023-04-05T00:31:12.123Z,100453.72
2023-04-05T00:31:53.728Z,100450.47
2023-04-05T00:32:36.292Z,100446.81
2023-04-05T00:33:17.872Z,100448.97
2023-04-05T00:33:59.521Z,100451.28
2023-04-05T00:34:41.107Z,100431.63
2023-04-05T00:35:22.640Z,100449.97
2023-04-05T00:36:11.292Z,100445.38
2023-04-05T00:36:52.990Z,100417.75
2023-04-05T00:37:34.545Z,100441.94
2023-04-05T00:38:16.742Z,100445.88
2023-04-05T00:38:58.425Z,100451.00
2023-04-05T00:39:40.190Z,100452.69
2023-04-05T00:40:21.903Z,100451.94
2023-04-05T00:41:03.508Z,100427.97
2023-04-05T00:41:46.947Z,100442.88
2023-04-05T00:42:30.292Z,100364.97
2023-04-05T00:43:11.900Z,100438.69
2023-04-05T00:43:53.474Z,100438.94
2023-04-05T00:44:35.993Z,100442.81
2023-04-05T00:45:17.786Z,100443.28
2023-04-05T00:46:00.243Z,100290.78
2023-04-05T00:46:42.242Z,100429.72
2023-04-05T00:47:24.731Z,100424.97
2023-04-05T00:48:06.735Z,100435.28
2023-04-05T00:48:48.945Z,100439.06
2023-04-05T00:49:32.489Z,100441.25
2023-04-05T00:50:15.921Z,100443.38
2023-04-05T00:50:58.072Z,100447.22
2023-04-05T00:51:40.356Z,100433.78
2023-04-05T00:52:23.338Z,100430.66
2023-04-05T00:53:05.374Z,100446.94
2023-04-05T00:53:48.064Z,100444.84
2023-04-05T00:54:30.660Z,100443.91
2023-04-05T00:55:13.507Z,100443.31
2023-04-05T00:55:55.596Z,100445.19
2023-04-05T00:56:37.425Z,100446.97
2023-04-05T00:57:19.149Z,100434.44
2023-04-05T00:58:00.832Z,100439.31
2023-04-05T00:58:42.561Z,100440.16
2023-04-05T00:59:24.397Z,100439.22
2023-04-05T01:00:11.026Z,100353.91
2023-04-05T01:01:01.814Z,100440.91
2023-04-05T01:01:43.748Z,100430.88
2023-04-05T01:02:33.631Z,100435.69
2023-04-05T01:03:16.930Z,100432.13
2023-04-05T01:04:05.358Z,100422.94
2023-04-05T01:04:51.740Z,100432.13
2023-04-05T01:05:55.827Z,100415.66
2023-04-05T01:06:50.326Z,100427.75
2023-04-05T01:07:42.246Z,100427.53
2023-04-05T01:08:52.154Z,100413.88
2023-04-05T01:09:57.174Z,100420.75
2023-04-05T01:10:44.244Z,100405.09
2023-04-05T01:11:26.314Z,100416.88
2023-04-05T01:12:12.312Z,100425.44
2023-04-05T01:12:54.503Z,100413.88
2023-04-05T01:13:36.533Z,100379.88
2023-04-05T01:14:18.559Z,100422.44
2023-04-05T01:15:01.251Z,100419.28
2023-04-05T01:15:43.048Z,100426.38
2023-04-05T01:16:24.757Z,100387.06
2023-04-05T01:17:09.605Z,100413.16
2023-04-05T01:17:54.163Z,100422.53
2023-04-05T01:18:37.187Z,100419.84
2023-04-05T01:19:19.685Z,100417.13
2023-04-05T01:20:11.137Z,100422.09
2023-04-05T01:21:03.139Z,100422.00
2023-04-05T01:22:16.728Z,100396.47
2023-04-05T01:23:49.215Z,100417.72
2023-04-05T01:24:52.756Z,100410.31
2023-04-05T01:25:52.870Z,100405.91
2023-04-05T01:26:51.704Z,100402.69
2023-04-05T01:28:12.221Z,100398.72
2023-04-05T01:29:18.357Z,100409.06
2023-04-05T01:30:17.544Z,100389.38
2023-04-05T01:31:11.299Z,100404.78
2023-04-05T01:32:14.536Z,100408.56
2023-04-05T01:33:04.840Z,100400.41
2023-04-05T01:33:58.762Z,100405.03
2023-04-05T01:34:56.355Z,100400.22
2023-04-05T01:36:12.640Z,100401.69
2023-04-05T01:37:02.711Z,100385.84
2023-04-05T01:37:49.981Z,100379.34
2023-04-05T01:38:33.467Z,100377.09
2023-04-05T01:39:18.947Z,100392.91
2023-04-05T01:40:01.238Z,100395.53
2023-04-05T01:40:43.555Z,100396.25
2023-04-05T01:41:26.429Z,100391.03
2023-04-05T01:42:08.551Z,100398.72
2023-04-05T01:42:50.147Z,100399.47
2023-04-05T01:43:31.725Z,100393.19
2023-04-05T01:44:13.378Z,100392.47
2023-04-05T01:44:56.582Z,100370.47
2023-04-05T01:45:38.235Z,100398.22
2023-04-05T01:46:19.911Z,100392.25
2023-04-05T01:47:01.761Z,100401.88
2023-04-05T01:47:43.482Z,100391.13
2023-04-05T01:48:25.575Z,100381.94
2023-04-05T01:49:08.020Z,100395.31
2023-04-05T01:49:49.787Z,100397.09
2023-04-05T01:50:31.526Z,100402.16
2023-04-05T01:51:13.242Z,100369.56
2023-04-05T01:51:54.882Z,100361.81
2023-04-05T01:52:36.684Z,100383.72
2023-04-05T01:53:18.773Z,100387.91
2023-04-05T01:54:00.529Z,100314.09
2023-04-05T01:54:42.147Z,100382.28
2023-04-05T01:55:24.194Z,100392.16
2023-04-05T01:56:05.957Z,100366.19
2023-04-05T01:56:47.512Z,100356.91
2023-04-05T01:57:29.244Z,100393.00
2023-04-05T01:58:10.887Z,100326.06
2023-04-05T01:58:52.611Z,100374.78
2023-04-05T01:59:34.282Z,100378.00
2023-04-05T02:00:16.099Z,100391.88
2023-04-05T02:00:58.593Z,100389.88
2023-04-05T02:01:40.259Z,100392.19
2023-04-05T02:02:21.796Z,100389.19
2023-04-05T02:03:03.626Z,100382.50
2023-04-05T02:03:45.453Z,100387.72
2023-04-05T02:04:27.168Z,100346.91
2023-04-05T02:05:09.102Z,100387.16
2023-04-05T02:05:51.551Z,100383.00
2023-04-05T02:06:33.451Z,100324.09
2023-04-05T02:07:16.698Z,100380.72
2023-04-05T02:07:58.301Z,100360.88
2023-04-05T02:08:39.965Z,100381.94
2023-04-05T02:09:21.618Z,100378.72
2023-04-05T02:10:03.424Z,100385.72
2023-04-05T02:10:45.800Z,100369.53
2023-04-05T02:11:27.390Z,100377.25
2023-04-05T02:12:12.361Z,100377.44
2023-04-05T02:12:53.972Z,100376.53
2023-04-05T02:13:35.680Z,100381.00
2023-04-05T02:14:17.453Z,100358.25
2023-04-05T02:14:59.042Z,100373.69
2023-04-05T02:15:40.968Z,100377.78
2023-04-05T02:16:23.274Z,100377.22
2023-04-05T02:17:05.044Z,100367.34
2023-04-05T02:17:46.771Z,100379.00
2023-04-05T02:18:31.981Z,100382.53
2023-04-05T02:19:15.923Z,100386.09
2023-04-05T02:20:02.122Z,100377.44
2023-04-05T02:20:44.620Z,100391.19
2023-04-05T02:21:26.799Z,100375.66
2023-04-05T02:22:08.949Z,100378.47
2023-04-05T02:22:51.732Z,100377.25
2023-04-05T02:23:34.368Z,100372.34
2023-04-05T02:24:16.056Z,100376.13
2023-04-05T02:24:57.776Z,100249.66
2023-04-05T02:25:39.404Z,100380.53
2023-04-05T02:26:21.434Z,100379.25
2023-04-05T02:27:03.185Z,100366.31
2023-04-05T02:27:44.923Z,100370.19
2023-04-05T02:28:27.224Z,100359.13
2023-04-05T02:29:08.900Z,100380.00
2023-04-05T02:29:51.668Z,100377.59
2023-04-05T02:30:33.395Z,100376.16
2023-04-05T02:31:15.416Z,100363.63
2023-04-05T02:31:57.835Z,100372.06
2023-04-05T02:32:42.435Z,100372.06
2023-04-05T02:33:24.040Z,100375.41
2023-04-05T02:34:09.082Z,100381.38
2023-04-05T02:34:52.342Z,100379.78
2023-04-05T02:35:34.081Z,100371.03
2023-04-05T02:36:16.252Z,100361.09
2023-04-05T02:36:58.861Z,100370.81
2023-04-05T02:37:41.652Z,100375.06
2023-04-05T02:38:23.379Z,100367.88
2023-04-05T02:39:05.077Z,100368.81
2023-04-05T02:39:47.134Z,100349.53
2023-04-05T02:40:28.810Z,100369.25
2023-04-05T02:41:14.384Z,100331.59
2023-04-05T02:41:56.749Z,100370.31
2023-04-05T02:42:38.427Z,100307.09
2023-04-05T02:43:20.088Z,100355.16
2023-04-05T02:44:02.094Z,100369.38
2023-04-05T02:44:45.411Z,100370.81
2023-04-05T02:45:29.656Z,100368.81
2023-04-05T02:46:13.526Z,100373.94
2023-04-05T02:46:57.036Z,100373.94
2023-04-05T02:47:44.492Z,100362.97
2023-04-05T02:48:26.196Z,100369.47
2023-04-05T02:49:07.982Z,100385.84
2023-04-05T02:49:51.282Z,100349.94
2023-04-05T02:50:33.416Z,100367.34
2023-04-05T02:51:15.045Z,100374.78
2023-04-05T02:51:57.628Z,100377.28
2023-04-05T02:52:39.395Z,100300.41
2023-04-05T02:53:21.239Z,100373.94
2023-04-05T02:54:09.367Z,100371.13
2023-04-05T02:54:51.701Z,100372.69
2023-04-05T02:55:41.955Z,100371.63
2023-04-05T02:56:23.520Z,100375.81
2023-04-05T02:57:05.323Z,100353.81
2023-04-05T02:58:00.587Z,100386.66
2023-04-05T02:59:02.580Z,100376.97
2023-04-05T02:59:45.146Z,100259.66
2023-04-05T03:00:27.996Z,100378.75
2023-04-05T03:01:12.695Z,100373.53
2023-04-05T03:01:54.638Z,100377.69
2023-04-05T03:02:40.933Z,100374.13
2023-04-05T03:03:23.315Z,100367.88
2023-04-05T03:04:05.232Z,100380.63
2023-04-05T03:04:48.155Z,100306.56
2023-04-05T03:05:31.972Z,100370.69
2023-04-05T03:06:14.387Z,100378.00
2023-04-05T03:07:04.689Z,100355.84
2023-04-05T03:07:51.874Z,100352.53
2023-04-05T03:08:38.765Z,100373.78
2023-04-05T03:09:22.427Z,100376.59
2023-04-05T03:10:08.317Z,100365.75
2023-04-05T03:10:52.540Z,100361.66
2023-04-05T03:11:34.198Z,100369.72
2023-04-05T03:12:15.984Z,100307.97
2023-04-05T03:12:58.712Z,100297.97
2023-04-05T03:13:42.568Z,100368.69
2023-04-05T03:14:31.564Z,100355.34
2023-04-05T03:15:14.260Z,100367.56
2023-04-05T03:15:58.788Z,100357.53
2023-04-05T03:16:42.809Z,100321.44
2023-04-05T03:17:33.222Z,100359.72
2023-04-05T03:18:17.648Z,100363.09
2023-04-05T03:19:00.048Z,100353.88
2023-04-05T03:19:42.568Z,100366.38
2023-04-05T03:20:29.616Z,100360.34
2023-04-05T03:21:18.064Z,100364.63
2023-04-05T03:22:08.701Z,100367.03
2023-04-05T03:22:52.507Z,100357.53
2023-04-05T03:23:34.744Z,100361.81
2023-04-05T03:24:16.992Z,100360.06
2023-04-05T03:24:59.021Z,100359.94
2023-04-05T03:25:41.650Z,100311.56
2023-04-05T03:26:24.604Z,100275.88
2023-04-05T03:27:08.082Z,100347.44
2023-04-05T03:27:57.972Z,100359.00
2023-04-05T03:28:45.747Z,100222.66
2023-04-05T03:29:28.263Z,100333.25
2023-04-05T03:30:10.561Z,100357.47
2023-04-05T03:30:57.198Z,100360.59
2023-04-05T03:31:39.457Z,100344.22
2023-04-05T03:32:23.968Z,100343.06
2023-04-05T03:33:13.195Z,100344.09
2023-04-05T03:33:58.904Z,100364.78
2023-04-05T03:34:44.160Z,100366.53
2023-04-05T03:35:30.906Z,100355.28
2023-04-05T03:36:16.472Z,100353.06
2023-04-05T03:36:59.498Z,100309.88
2023-04-05T03:37:50.892Z,100365.47
2023-04-05T03:38:33.136Z,100353.91
2023-04-05T03:39:25.949Z,100361.44
2023-04-05T03:40:10.519Z,100365.38
2023-04-05T03:40:52.141Z,100372.25
2023-04-05T03:41:33.837Z,100367.97
2023-04-05T03:42:16.400Z,100373.94
2023-04-05T03:42:59.217Z,100369.75
2023-04-05T03:43:41.493Z,100353.91
2023-04-05T03:44:23.103Z,100345.53
2023-04-05T03:45:06.133Z,100366.41
2023-04-05T03:45:47.838Z,100362.25
2023-04-05T03:46:29.589Z,100334.63
2023-04-05T03:47:11.312Z,100361.94
2023-04-05T03:47:55.027Z,100365.47
2023-04-05T03:48:36.854Z,100291.34
2023-04-05T03:49:19.843Z,100368.19
2023-04-05T03:50:02.808Z,100362.16
2023-04-05T03:50:47.087Z,100344.50
2023-04-05T03:51:28.768Z,100342.25
2023-04-05T03:52:10.433Z,100343.28
2023-04-05T03:52:57.170Z,100333.03
2023-04-05T03:53:39.035Z,100339.19
2023-04-05T03:54:21.931Z,100348.28
2023-04-05T03:55:06.816Z,100356.72
2023-04-05T03:55:50.346Z,100332.00
2023-04-05T03:56:35.330Z,100355.56
2023-04-05T03:57:26.041Z,100362.31
2023-04-05T03:58:10.589Z,100321.72
2023-04-05T03:58:53.060Z,100357.03
2023-04-05T03:59:39.549Z,100339.63
2023-04-05T04:00:24.010Z,100365.22
2023-04-05T04:01:44.811Z,100357.38
2023-04-05T04:02:26.560Z,100362.91
2023-04-05T04:03:09.753Z,100347.03
2023-04-05T04:03:55.288Z,100332.91
2023-04-05T04:04:38.518Z,100354.53
2023-04-05T04:05:21.635Z,100353.41
2023-04-05T04:06:08.076Z,100354.69
2023-04-05T04:06:49.867Z,100353.38
2023-04-05T04:07:35.819Z,100354.63
2023-04-05T04:08:17.475Z,100340.78
2023-04-05T04:08:59.133Z,100349.66
2023-04-05T04:09:40.798Z,100329.13
2023-04-05T04:10:24.790Z,100354.50
2023-04-05T04:11:11.137Z,100351.56
2023-04-05T04:11:54.625Z,100346.06
2023-04-05T04:12:37.775Z,100350.75
2023-04-05T04:13:19.429Z,100351.31
2023-04-05T04:14:05.918Z,100351.84
2023-04-05T04:15:07.029Z,100354.84
2023-04-05T04:16:17.950Z,100341.09
2023-04-05T04:16:59.541Z,100355.59
2023-04-05T04:18:00.183Z,100291.97
2023-04-05T04:19:11.378Z,100352.94
2023-04-05T04:20:15.984Z,100349.69
2023-04-05T04:21:07.269Z,100350.28
2023-04-05T04:22:03.173Z,100349.22
2023-04-05T04:23:10.094Z,100345.47
2023-04-05T04:24:18.720Z,100349.19
2023-04-05T04:25:10.272Z,100355.03
2023-04-05T04:26:14.351Z,100341.09
2023-04-05T04:27:16.972Z,100344.84
2023-04-05T04:28:06.740Z,100352.34
2023-04-05T04:29:07.270Z,100350.94
2023-04-05T04:30:04.466Z,100317.16
2023-04-05T04:30:48.972Z,100355.63
2023-04-05T04:32:07.016Z,100364.69
2023-04-05T04:33:09.168Z,100356.44
2023-04-05T04:34:26.357Z,100369.53
2023-04-05T04:35:38.938Z,100363.38
2023-04-05T04:36:46.559Z,100367.31
2023-04-05T04:37:54.903Z,100363.31
2023-04-05T04:38:47.296Z,100366.25
2023-04-05T04:39:52.610Z,100360.91
2023-04-05T04:40:47.472Z,100337.56
2023-04-05T04:42:10.695Z,100357.88
2023-04-05T04:43:27.812Z,100278.78
2023-04-05T04:44:39.207Z,100350.09
2023-04-05T04:45:39.519Z,100335.19
2023-04-05T04:46:42.717Z,100341.97
2023-04-05T04:47:39.109Z,100354.56
2023-04-05T04:48:33.080Z,100330.25
2023-04-05T04:49:25.989Z,100350.28
2023-04-05T04:50:09.629Z,100350.28
2023-04-05T04:50:51.756Z,100341.97
2023-04-05T04:51:34.680Z,100353.44
2023-04-05T04:52:16.241Z,100348.34
2023-04-05T04:53:01.901Z,100349.91
2023-04-05T04:53:43.531Z,100347.41
2023-04-05T04:54:25.238Z,100343.13
2023-04-05T04:55:10.326Z,100329.88
2023-04-05T04:55:52.019Z,100341.66
2023-04-05T04:56:33.696Z,100321.84
2023-04-05T04:57:15.830Z,100332.50
2023-04-05T04:57:57.594Z,100341.88
2023-04-05T04:58:39.393Z,100341.13
2023-04-05T04:59:22.790Z,100349.38
2023-04-05T05:00:12.011Z,100355.22
2023-04-05T05:00:53.731Z,100331.75
2023-04-05T05:01:35.476Z,100350.84
2023-04-05T05:02:17.981Z,100337.38
2023-04-05T05:02:59.796Z,100350.00
2023-04-05T05:03:42.777Z,100336.94
2023-04-05T05:04:24.520Z,100341.41
2023-04-05T05:05:07.745Z,100353.63
2023-04-05T05:05:51.319Z,100333.69
2023-04-05T05:06:37.581Z,100340.66
2023-04-05T05:07:20.181Z,100348.63
2023-04-05T05:08:01.934Z,100335.78
2023-04-05T05:08:43.486Z,100329.00
2023-04-05T05:09:25.419Z,100357.38
2023-04-05T05:10:15.990Z,100366.13
2023-04-05T05:10:57.699Z,100326.56
2023-04-05T05:11:39.340Z,100367.97
2023-04-05T05:12:23.746Z,100303.50
2023-04-05T05:13:06.052Z,100356.25
2023-04-05T05:13:51.146Z,100345.94
2023-04-05T05:14:37.684Z,100365.13
2023-04-05T05:15:19.581Z,100340.44
2023-04-05T05:16:02.359Z,100334.97
2023-04-05T05:16:44.658Z,100330.78
2023-04-05T05:17:26.518Z,100360.91
2023-04-05T05:18:08.935Z,100362.59
2023-04-05T05:18:54.325Z,100365.19
2023-04-05T05:19:38.238Z,100349.41
2023-04-05T05:20:20.154Z,100352.13
2023-04-05T05:21:01.908Z,100313.38
2023-04-05T05:21:43.598Z,100362.16
2023-04-05T05:22:25.277Z,100347.22
2023-04-05T05:23:06.981Z,100350.56
2023-04-05T05:23:48.852Z,100336.56
2023-04-05T05:24:30.482Z,100363.00
2023-04-05T05:25:12.440Z,100366.53
2023-04-05T05:26:00.335Z,100361.13
2023-04-05T05:26:42.354Z,100359.38
2023-04-05T05:27:24.068Z,100367.06
2023-04-05T05:28:05.876Z,100366.84
2023-04-05T05:28:49.196Z,100367.50
2023-04-05T05:29:30.763Z,100341.44
2023-04-05T05:30:13.196Z,100366.28
2023-04-05T05:30:54.912Z,100366.81
2023-04-05T05:31:36.777Z,100371.91
2023-04-05T05:32:18.397Z,100358.81
2023-04-05T05:33:00.153Z,100370.28
2023-04-05T05:33:42.024Z,100355.78
2023-04-05T05:34:24.273Z,100374.69
2023-04-05T05:35:09.747Z,100354.47
2023-04-05T05:35:51.606Z,100370.88
2023-04-05T05:36:34.873Z,100363.44
2023-04-05T05:37:17.151Z,100311.72
2023-04-05T05:37:58.845Z,100312.75
2023-04-05T05:38:43.006Z,100375.16
2023-04-05T05:39:25.148Z,100356.56
2023-04-05T05:40:07.168Z,100365.56
2023-04-05T05:40:48.813Z,100299.63
2023-04-05T05:41:30.610Z,100368.88
2023-04-05T05:42:12.257Z,100369.94
2023-04-05T05:42:53.950Z,100371.16
2023-04-05T05:43:35.680Z,100362.47
2023-04-05T05:44:17.332Z,100377.72
2023-04-05T05:45:03.846Z,100371.97
2023-04-05T05:45:45.626Z,100373.09
2023-04-05T05:46:27.407Z,100362.53
2023-04-05T05:47:09.076Z,100351.09
2023-04-05T05:47:51.122Z,100363.19
2023-04-05T05:48:33.195Z,100367.25
2023-04-05T05:49:14.887Z,100351.94
2023-04-05T05:49:56.502Z,100356.09
2023-04-05T05:50:39.574Z,100363.50
2023-04-05T05:51:21.736Z,100371.31
2023-04-05T05:52:04.053Z,100365.69
2023-04-05T05:52:45.871Z,100366.53
2023-04-05T05:53:27.564Z,100374.94
2023-04-05T05:54:09.157Z,100368.38
2023-04-05T05:54:50.813Z,100374.44
2023-04-05T05:55:32.617Z,100373.78
2023-04-05T05:56:15.709Z,100376.47
2023-04-05T05:56:57.514Z,100316.19
2023-04-05T05:57:39.541Z,100380.66
2023-04-05T05:58:21.209Z,100375.34
2023-04-05T05:59:03.134Z,100375.25
2023-04-05T05:59:44.823Z,100354.81
2023-04-05T06:00:27.234Z,100366.34
2023-04-05T06:01:11.898Z,100374.16
2023-04-05T06:01:55.102Z,100373.03
2023-04-05T06:02:36.874Z,100376.06
2023-04-05T06:03:19.209Z,100368.47
2023-04-05T06:04:01.323Z,100371.19
2023-04-05T06:04:43.964Z,100363.28
2023-04-05T06:05:26.371Z,100355.75
2023-04-05T06:06:11.298Z,100377.44
2023-04-05T06:06:54.522Z,100374.66
2023-04-05T06:07:37.454Z,100378.00
2023-04-05T06:08:18.996Z,100382.19
2023-04-05T06:09:00.943Z,100353.69
2023-04-05T06:09:42.589Z,100381.09
2023-04-05T06:10:25.219Z,100378.31
2023-04-05T06:11:06.917Z,100366.75
2023-04-05T06:11:56.366Z,100359.00
2023-04-05T06:12:38.249Z,100384.78
2023-04-05T06:13:20.346Z,100382.06
2023-04-05T06:14:02.154Z,100382.69
2023-04-05T06:14:43.825Z,100378.94
2023-04-05T06:15:25.601Z,100354.00
2023-04-05T06:16:07.254Z,100390.63
2023-04-05T06:16:48.967Z,100382.41
2023-04-05T06:17:30.610Z,100364.34
2023-04-05T06:18:12.255Z,100379.16
2023-04-05T06:18:56.225Z,100388.13
2023-04-05T06:19:38.015Z,100381.75
2023-04-05T06:20:19.676Z,100383.63
2023-04-05T06:21:01.409Z,100329.22
2023-04-05T06:21:43.003Z,100387.88
2023-04-05T06:22:24.981Z,100386.38
2023-04-05T06:23:07.783Z,100371.19
2023-04-05T06:23:49.617Z,100388.66
2023-04-05T06:24:32.116Z,100388.44
2023-04-05T06:25:14.053Z,100389.09
2023-04-05T06:25:57.063Z,100380.00
2023-04-05T06:26:38.673Z,100388.84
2023-04-05T06:27:20.262Z,100389.34
2023-04-05T06:28:05.332Z,100383.19
2023-04-05T06:28:50.191Z,100391.28
2023-04-05T06:29:31.824Z,100372.50
2023-04-05T06:30:14.046Z,100387.28
2023-04-05T06:30:59.395Z,100391.13
2023-04-05T06:31:42.615Z,100387.22
2023-04-05T06:32:24.378Z,100385.84
2023-04-05T06:33:06.164Z,100372.16
2023-04-05T06:33:47.820Z,100397.88
2023-04-05T06:34:29.378Z,100395.50
2023-04-05T06:35:11.244Z,100399.22
2023-04-05T06:35:53.220Z,100393.31
2023-04-05T06:36:34.994Z,100381.19
2023-04-05T06:37:16.648Z,100396.53
2023-04-05T06:37:58.351Z,100378.81
2023-04-05T06:38:40.031Z,100390.13
2023-04-05T06:39:21.775Z,100387.28
2023-04-05T06:40:03.869Z,100395.03
2023-04-05T06:40:45.513Z,100348.75
2023-04-05T06:41:29.850Z,100392.41
2023-04-05T06:42:11.468Z,100386.31
2023-04-05T06:42:59.599Z,100388.72
2023-04-05T06:43:45.422Z,100389.31
2023-04-05T06:44:27.032Z,100387.50
2023-04-05T06:45:09.241Z,100396.41
2023-04-05T06:45:51.083Z,100380.94
2023-04-05T06:46:32.828Z,100376.28
2023-04-05T06:47:14.687Z,100382.34
2023-04-05T06:47:56.431Z,100392.66
2023-04-05T06:48:39.763Z,100380.28
2023-04-05T06:49:21.635Z,100403.59
2023-04-05T06:50:08.375Z,100396.63
2023-04-05T06:51:00.337Z,100387.81
2023-04-05T06:51:41.939Z,100392.78
2023-04-05T06:52:23.609Z,100365.50
2023-04-05T06:53:05.302Z,100392.19
2023-04-05T06:53:46.971Z,100396.00
2023-04-05T06:54:28.604Z,100379.53
2023-04-05T06:55:10.462Z,100397.72
2023-04-05T06:55:52.103Z,100395.41
2023-04-05T06:56:33.840Z,100399.91
2023-04-05T06:57:15.664Z,100395.91
2023-04-05T06:57:57.290Z,100345.63
2023-04-05T06:58:38.846Z,100391.66
2023-04-05T06:59:20.739Z,100391.75
2023-04-05T07:00:03.330Z,100399.91
2023-04-05T07:00:47.002Z,100397.72
2023-04-05T07:01:29.300Z,100395.41
2023-04-05T07:02:10.993Z,100376.59
2023-04-05T07:02:52.640Z,100389.09
2023-04-05T07:03:34.419Z,100377.88
2023-04-05T07:04:16.269Z,100389.56
2023-04-05T07:05:04.532Z,100384.59
2023-04-05T07:05:53.357Z,100372.16
2023-04-05T07:06:38.945Z,100391.81
2023-04-05T07:07:20.714Z,100394.06
2023-04-05T07:08:02.454Z,100386.59
2023-04-05T07:08:44.103Z,100390.47
2023-04-05T07:09:26.701Z,100392.56
2023-04-05T07:10:09.522Z,100378.72
2023-04-05T07:10:51.665Z,100393.94
2023-04-05T07:11:33.247Z,100378.75
2023-04-05T07:12:17.819Z,100385.94
2023-04-05T07:12:59.431Z,100386.22
2023-04-05T07:13:41.388Z,100389.56
2023-04-05T07:14:23.217Z,100386.47
2023-04-05T07:15:05.606Z,100388.75
2023-04-05T07:15:47.292Z,100393.28
2023-04-05T07:16:29.068Z,100372.25
2023-04-05T07:17:10.791Z,100387.34
2023-04-05T07:17:52.615Z,100384.28
2023-04-05T07:18:34.254Z,100376.81
2023-04-05T07:19:16.236Z,100388.72
2023-04-05T07:19:57.868Z,100369.22
2023-04-05T07:20:39.819Z,100392.47
2023-04-05T07:21:21.722Z,100378.31
2023-04-05T07:22:03.353Z,100389.13
2023-04-05T07:22:44.996Z,100361.19
2023-04-05T07:23:29.530Z,100366.25
2023-04-05T07:24:11.134Z,100378.38
2023-04-05T07:24:53.328Z,100382.50
2023-04-05T07:25:35.022Z,100379.44
2023-04-05T07:26:16.750Z,100380.66
2023-04-05T07:26:58.616Z,100378.09
2023-04-05T07:27:40.199Z,100370.50
2023-04-05T07:28:21.948Z,100370.75
2023-04-05T07:29:04.774Z,100379.97
2023-04-05T07:29:48.336Z,100366.81
2023-04-05T07:30:32.036Z,100384.75
2023-04-05T07:31:14.872Z,100378.53
2023-04-05T07:31:56.832Z,100382.22
2023-04-05T07:32:38.654Z,100372.63
2023-04-05T07:33:20.977Z,100375.22
2023-04-05T07:34:02.782Z,100374.91
2023-04-05T07:34:44.425Z,100372.69
2023-04-05T07:35:26.152Z,100382.19
2023-04-05T07:36:08.710Z,100377.94
2023-04-05T07:36:50.657Z,100386.69
2023-04-05T07:37:32.308Z,100383.63
2023-04-05T07:38:13.934Z,100379.53
2023-04-05T07:38:55.715Z,100378.66
2023-04-05T07:39:37.740Z,100380.13
2023-04-05T07:40:19.434Z,100372.53
2023-04-05T07:41:01.682Z,100370.72
2023-04-05T07:41:43.508Z,100377.59
2023-04-05T07:42:25.894Z,100285.13
2023-04-05T07:43:07.530Z,100379.00
2023-04-05T07:43:49.775Z,100377.19
2023-04-05T07:44:31.478Z,100384.88
2023-04-05T07:45:13.185Z,100374.69
2023-04-05T07:46:02.070Z,100386.78
2023-04-05T07:46:49.103Z,100373.34
2023-04-05T07:47:34.450Z,100382.66
2023-04-05T07:48:16.252Z,100334.63
2023-04-05T07:48:58.353Z,100377.03
2023-04-05T07:49:40.004Z,100376.25
2023-04-05T07:50:21.624Z,100386.38
2023-04-05T07:51:07.489Z,100383.09
2023-04-05T07:51:49.415Z,100383.34
2023-04-05T07:52:31.158Z,100372.59
2023-04-05T07:53:13.024Z,100335.53
2023-04-05T07:53:54.741Z,100379.72
2023-04-05T07:54:39.559Z,100369.16
2023-04-05T07:55:21.507Z,100355.78
2023-04-05T07:56:05.377Z,100375.91
2023-04-05T07:56:47.094Z,100375.59
2023-04-05T07:57:29.166Z,100387.53
2023-04-05T07:58:11.003Z,100373.69
2023-04-05T07:58:54.803Z,100363.78
2023-04-05T07:59:36.984Z,100381.50
2023-04-05T08:00:19.090Z,100380.38
2023-04-05T08:01:04.934Z,100377.72
2023-04-05T08:01:46.674Z,100384.84
2023-04-05T08:02:28.397Z,100391.63
2023-04-05T08:03:10.788Z,100367.63
2023-04-05T08:03:52.489Z,100391.31
2023-04-05T08:04:34.272Z,100384.22
2023-04-05T08:05:16.082Z,100372.81
2023-04-05T08:05:58.338Z,100382.09
2023-04-05T08:06:40.462Z,100372.81
2023-04-05T08:07:23.281Z,100372.34
2023-04-05T08:08:05.030Z,100384.75
2023-04-05T08:08:47.161Z,100379.81
2023-04-05T08:09:28.851Z,100380.13
2023-04-05T08:10:11.002Z,100381.09
2023-04-05T08:10:52.821Z,100381.25
2023-04-05T08:11:35.585Z,100391.03
2023-04-05T08:12:17.433Z,100331.56
2023-04-05T08:12:59.173Z,100385.38
2023-04-05T08:13:41.874Z,100386.03
2023-04-05T08:14:23.632Z,100390.34
2023-04-05T08:15:05.821Z,100330.06
2023-04-05T08:15:47.518Z,100374.16
2023-04-05T08:16:29.280Z,100353.94
2023-04-05T08:17:11.108Z,100372.19
2023-04-05T08:17:52.926Z,100381.28
2023-04-05T08:18:34.732Z,100373.53
2023-04-05T08:19:16.772Z,100388.09
2023-04-05T08:19:58.373Z,100378.16
2023-04-05T08:20:40.695Z,100384.28
2023-04-05T08:21:23.397Z,100379.66
2023-04-05T08:22:05.098Z,100375.19
2023-04-05T08:22:46.750Z,100378.84
2023-04-05T08:23:28.464Z,100376.50
2023-04-05T08:24:10.189Z,100381.31
2023-04-05T08:24:52.057Z,100371.88
2023-04-05T08:25:33.958Z,100315.59
2023-04-05T08:26:16.421Z,100385.41
2023-04-05T08:26:58.102Z,100379.25
2023-04-05T08:27:39.805Z,100350.63
2023-04-05T08:28:21.653Z,100364.16
2023-04-05T08:29:03.317Z,100352.06
2023-04-05T08:29:44.968Z,100374.41
2023-04-05T08:30:27.003Z,100371.03
2023-04-05T08:31:08.722Z,100367.72
2023-04-05T08:31:50.517Z,100361.25
2023-04-05T08:32:33.029Z,100364.84
2023-04-05T08:33:14.802Z,100371.94
2023-04-05T08:33:56.451Z,100370.00
2023-04-05T08:34:38.150Z,100364.50
2023-04-05T08:35:19.795Z,100375.00
2023-04-05T08:36:08.816Z,100367.41
2023-04-05T08:36:50.527Z,100370.41
2023-04-05T08:37:35.574Z,100373.88
2023-04-05T08:38:17.324Z,100372.53
2023-04-05T08:38:58.935Z,100375.63
2023-04-05T08:39:40.592Z,100359.59
2023-04-05T08:40:29.128Z,100382.09
2023-04-05T08:41:26.131Z,100379.22
2023-04-05T08:42:15.767Z,100379.81
2023-04-05T08:43:27.073Z,100371.91
2023-04-05T08:44:10.393Z,100383.75
2023-04-05T08:44:53.063Z,100376.19
2023-04-05T08:45:37.375Z,100356.28
2023-04-05T08:46:21.008Z,100372.78
2023-04-05T08:47:02.992Z,100367.81
2023-04-05T08:47:46.527Z,100354.25
2023-04-05T08:48:32.430Z,100360.25
2023-04-05T08:49:14.187Z,100358.75
2023-04-05T08:49:56.261Z,100353.22
2023-04-05T08:50:38.000Z,100362.44
2023-04-05T08:51:24.126Z,100362.88
2023-04-05T08:52:06.129Z,100371.28
2023-04-05T08:52:49.921Z,100368.75
2023-04-05T08:53:33.345Z,100370.22
2023-04-05T08:54:15.330Z,100350.53
2023-04-05T08:54:57.099Z,100367.22
2023-04-05T08:55:39.499Z,100365.28
2023-04-05T08:56:25.922Z,100365.78
2023-04-05T08:57:08.514Z,100361.84
2023-04-05T08:57:55.490Z,100349.31
2023-04-05T08:58:38.588Z,100364.09